createdAt,value
2018-12-29T00:00:56.834Z,10
2018-12-29T00:11:05.041Z,9
2018-12-29T00:21:12.306Z,10
2018-12-29T00:31:19.123Z,11
2018-12-29T00:41:24.980Z,10
2018-12-29T00:45:39.220Z,9
2018-12-29T00:55:46.559Z,11
2018-12-29T01:05:54.198Z,9
2018-12-29T01:16:01.410Z,13
2018-12-29T01:26:10.427Z,10
2018-12-29T01:36:17.692Z,10
2018-12-29T01:46:24.947Z,10
2018-12-29T01:56:34.535Z,10
2018-12-29T02:06:42.433Z,8
2018-12-29T02:16:01.717Z,7
2018-12-29T02:26:06.738Z,7
2018-12-29T02:36:16.050Z,8
2018-12-29T02:46:22.828Z,8
2018-12-29T02:56:29.223Z,10
2018-12-29T03:06:35.853Z,8
2018-12-29T03:16:42.256Z,6
2018-12-29T03:26:49.528Z,7
2018-12-29T03:36:58.863Z,9
2018-12-29T03:47:06.833Z,8
2018-12-29T03:57:15.801Z,6
2018-12-29T04:07:24.175Z,9
2018-12-29T04:17:31.946Z,8
2018-12-29T04:27:40.546Z,9
2018-12-29T04:37:47.704Z,9
2018-12-29T04:47:54.728Z,11
2018-12-29T04:58:00.940Z,11
2018-12-29T05:08:09.699Z,14
2018-12-29T05:18:16.730Z,16
2018-12-29T05:28:24.654Z,20
2018-12-29T05:38:31.913Z,19
2018-12-29T05:48:39.656Z,25
2018-12-29T05:58:46.533Z,20
2018-12-29T06:08:55.106Z,19
2018-12-29T06:19:02.879Z,21
2018-12-29T06:29:11.273Z,24
2018-12-29T06:39:19.879Z,22
2018-12-29T06:49:27.715Z,23
2018-12-29T06:59:36.404Z,18
2018-12-29T07:09:43.733Z,23
2018-12-29T07:19:50.239Z,25
2018-12-29T07:29:58.403Z,21
2018-12-29T07:40:06.239Z,24
2018-12-29T07:50:14.364Z,24
2018-12-29T08:00:20.280Z,24
2018-12-29T08:10:27.574Z,27
2018-12-29T08:20:35.784Z,29
2018-12-29T08:30:41.794Z,28
2018-12-29T08:40:47.911Z,27
2018-12-29T08:50:55.507Z,29
2018-12-29T09:01:01.922Z,24
2018-12-29T09:11:08.825Z,23
2018-12-29T09:19:28.270Z,21
2018-12-29T09:29:32.071Z,20
2018-12-29T09:39:40.454Z,21
2018-12-29T09:48:00.482Z,21
2018-12-29T09:58:07.511Z,20
2018-12-29T10:08:15.381Z,19
2018-12-29T10:18:23.817Z,24
2018-12-29T10:28:31.540Z,20
2018-12-29T10:38:38.170Z,22
2018-12-29T10:48:46.358Z,22
2018-12-29T10:58:54.789Z,23
2018-12-29T11:09:04.327Z,24
2018-12-29T11:18:20.752Z,22
2018-12-29T11:28:28.244Z,22
2018-12-29T11:38:35.949Z,23
2018-12-29T11:48:43.867Z,20
2018-12-29T11:49:57.619Z,21
2018-12-29T12:00:08.313Z,21
2018-12-29T12:10:13.490Z,19
2018-12-29T12:20:21.888Z,17
2018-12-29T12:30:29.064Z,19
2018-12-29T12:40:38.664Z,17
2018-12-29T12:50:45.912Z,18
2018-12-29T13:00:56.857Z,15
2018-12-29T13:11:02.252Z,15
2018-12-29T13:21:10.309Z,15
2018-12-29T13:31:18.623Z,16
2018-12-29T13:41:22.024Z,22
2018-12-29T13:51:30.360Z,48
2018-12-29T14:01:37.590Z,30
2018-12-29T14:11:44.199Z,45
2018-12-29T14:21:52.461Z,15
2018-12-29T14:31:58.726Z,16
2018-12-29T14:42:06.521Z,15
2018-12-29T14:52:15.890Z,20
2018-12-29T15:02:23.420Z,20
2018-12-29T15:12:32.567Z,18
2018-12-29T15:22:42.640Z,18
2018-12-29T15:32:48.854Z,18
2018-12-29T15:42:59.169Z,19
2018-12-29T15:53:06.429Z,22
2018-12-29T16:03:14.126Z,19
2018-12-29T16:13:25.285Z,17
2018-12-29T16:19:41.073Z,19
2018-12-29T16:29:49.440Z,17
2018-12-29T16:39:56.047Z,19
2018-12-29T16:50:02.737Z,16
2018-12-29T17:00:13.083Z,18
2018-12-29T17:10:22.334Z,15
2018-12-29T17:12:33.365Z,18
2018-12-29T17:19:50.380Z,17
2018-12-29T17:29:57.768Z,14
2018-12-29T17:40:05.661Z,22
2018-12-29T17:50:13.284Z,16
2018-12-29T17:54:30.616Z,17
2018-12-29T18:04:36.161Z,16
2018-12-29T18:14:43.427Z,15
2018-12-29T18:24:52.839Z,18
2018-12-29T18:34:13.081Z,16
2018-12-29T18:44:20.081Z,17
2018-12-29T18:54:29.084Z,18
2018-12-29T19:04:35.039Z,16
2018-12-29T19:14:47.608Z,18
2018-12-29T19:24:58.316Z,15
2018-12-29T19:32:33.774Z,19
2018-12-29T19:42:39.676Z,17
2018-12-29T19:52:44.772Z,20
2018-12-29T20:02:54.650Z,24
2018-12-29T20:13:00.088Z,22
2018-12-29T20:18:14.774Z,20
2018-12-29T20:28:23.396Z,22
2018-12-29T20:33:41.607Z,24
2018-12-29T20:43:47.039Z,23
2018-12-29T20:53:52.782Z,18
2018-12-29T21:04:02.138Z,22
2018-12-29T21:14:09.229Z,27
2018-12-29T21:24:17.975Z,23
2018-12-29T21:34:24.358Z,21
2018-12-29T21:44:32.474Z,22
2018-12-29T21:54:40.255Z,20
2018-12-29T22:04:47.955Z,20
2018-12-29T22:14:55.207Z,22
2018-12-29T22:21:11.851Z,23
2018-12-29T22:26:28.778Z,19
2018-12-29T22:36:35.562Z,20
2018-12-29T22:46:43.068Z,16
2018-12-29T22:56:51.846Z,17
2018-12-29T23:06:59.104Z,16
2018-12-29T23:09:14.576Z,17
2018-12-29T23:19:20.201Z,19
2018-12-29T23:29:27.522Z,18
2018-12-29T23:39:37.430Z,18
2018-12-29T23:49:44.746Z,18
2018-12-29T23:59:49.974Z,16
